Observation data for Brownfield on 02/11/2018      Previous  Date  Next       Current Mesonet Observations  Soil Data  Daily Summary Page  Observations in Plain Language
KBWS 110600Z 05015KT M04/M12 A2997 RMK A01 T10381116  RH  056%=      5-min Rain = 0
KBWS 110605Z 05014KT M04/M12 A2997 RMK A01 T10391119  RH  055%=      5-min Rain = 0
KBWS 110610Z 05015KT M04/M12 A2997 RMK A01 T10401118  RH  055%=      5-min Rain = 0
KBWS 110615Z 05015G20KT M04/M12 A2997 RMK A01 T10411119  RH  056%=      5-min Rain = 0
KBWS 110620Z 05015G20KT M04/M12 A2997 RMK A01 T10421118  RH  056%=      5-min Rain = 0
KBWS 110625Z 05015KT M04/M12 A2997 RMK A01 T10431120  RH  056%=      5-min Rain = 0
KBWS 110630Z 04018G24KT M05/M13 A2997 RMK A01 T10461125  RH  055%=      5-min Rain = 0
KBWS 110635Z 04018KT M05/M13 A2998 RMK A01 T10491126  RH  056%=      5-min Rain = 0
KBWS 110640Z 04018KT M05/M13 A2998 RMK A01 T10511128  RH  056%=      5-min Rain = 0
KBWS 110645Z 04016G21KT M05/M13 A2999 RMK A01 T10521129  RH  056%=      5-min Rain = 0
KBWS 110650Z 04018KT M05/M13 A2998 RMK A01 T10531129  RH  056%=      5-min Rain = 0
KBWS 110655Z 04017KT M05/M13 A2999 RMK A01 T10531130  RH  056%=      5-min Rain = 0
KBWS 110700Z 04016G21KT M05/M13 A2999 RMK A01 T10541131  RH  055%=      5-min Rain = 0
KBWS 110705Z 04016KT M06/M13 A30 RMK A01 T10551132  RH  056%=      5-min Rain = 0
KBWS 110710Z 04016G21KT M06/M13 A30 RMK A01 T10571132  RH  056%=      5-min Rain = 0
KBWS 110715Z 04014G19KT M06/M13 A30 RMK A01 T10571132  RH  056%=      5-min Rain = 0
KBWS 110720Z 04012KT M06/M13 A2999 RMK A01 T10581133  RH  057%=      5-min Rain = 0
KBWS 110725Z 03011G16KT M06/M13 A2999 RMK A01 T10591132  RH  057%=      5-min Rain = 0
KBWS 110730Z 03011KT M06/M13 A30 RMK A01 T10591133  RH  057%=      5-min Rain = 0
KBWS 110735Z 02014G19KT M06/M13 A30 RMK A01 T10591132  RH  057%=      5-min Rain = 0
KBWS 110740Z 02015KT M06/M13 A30 RMK A01 T10591132  RH  057%=      5-min Rain = 0
KBWS 110745Z 02015KT M06/M13 A30 RMK A01 T10601132  RH  058%=      5-min Rain = 0
KBWS 110750Z 02014KT M06/M13 A30 RMK A01 T10611132  RH  058%=      5-min Rain = 0
KBWS 110755Z 02015KT M06/M13 A3001 RMK A01 T10621132  RH  058%=      5-min Rain = 0
KBWS 110800Z 02014KT M06/M13 A30 RMK A01 T10621132  RH  059%=      5-min Rain = 0
KBWS 110805Z 02013G18KT M06/M13 A3001 RMK A01 T10631132  RH  059%=      5-min Rain = 0
KBWS 110810Z 02015G21KT M06/M13 A3001 RMK A01 T10631132  RH  059%=      5-min Rain = 0
KBWS 110815Z 02016G21KT M06/M13 A3002 RMK A01 T10631132  RH  059%=      5-min Rain = 0
KBWS 110820Z 02018G23KT M06/M13 A3002 RMK A01 T10621132  RH  058%=      5-min Rain = 0
KBWS 110825Z 02017G22KT M06/M13 A3002 RMK A01 T10621133  RH  058%=      5-min Rain = 0
KBWS 110830Z 02012KT M06/M13 A3003 RMK A01 T10621133  RH  058%=      5-min Rain = 0
KBWS 110835Z 02016G21KT M06/M13 A3003 RMK A01 T10631133  RH  058%=      5-min Rain = 0
KBWS 110840Z 02016G21KT M06/M13 A3003 RMK A01 T10641134  RH  059%=      5-min Rain = 0
KBWS 110845Z 02013G19KT M07/M13 A3003 RMK A01 T10661134  RH  059%=      5-min Rain = 0
KBWS 110850Z 02014G20KT M07/M14 A3003 RMK A01 T10661135  RH  059%=      5-min Rain = 0
KBWS 110855Z 02015KT M07/M14 A3004 RMK A01 T10671136  RH  059%=      5-min Rain = 0
KBWS 110900Z 02013G18KT M07/M14 A3004 RMK A01 T10671137  RH  059%=      5-min Rain = 0
KBWS 110905Z 02015KT M07/M14 A3004 RMK A01 T10681137  RH  058%=      5-min Rain = 0
KBWS 110910Z 01016G22KT M07/M14 A3004 RMK A01 T10681138  RH  058%=      5-min Rain = 0
KBWS 110915Z 02016G22KT M07/M14 A3004 RMK A01 T10671137  RH  058%=      5-min Rain = 0
KBWS 110920Z 02017G22KT M07/M14 A3004 RMK A01 T10681138  RH  058%=      5-min Rain = 0
KBWS 110925Z 02015KT M07/M14 A3004 RMK A01 T10671138  RH  058%=      5-min Rain = 0
KBWS 110930Z 02013KT M07/M14 A3004 RMK A01 T10671138  RH  058%=      5-min Rain = 0
KBWS 110935Z 01013G18KT M07/M14 A3004 RMK A01 T10681138  RH  058%=      5-min Rain = 0
KBWS 110940Z 01014KT M07/M14 A3004 RMK A01 T10681139  RH  058%=      5-min Rain = 0
KBWS 110945Z 01014KT M07/M14 A3004 RMK A01 T10671139  RH  057%=      5-min Rain = 0
KBWS 110950Z 01011G17KT M07/M14 A3004 RMK A01 T10681140  RH  057%=      5-min Rain = 0
KBWS 110955Z 01015G20KT M07/M14 A3004 RMK A01 T10681141  RH  057%=      5-min Rain = 0
KBWS 111000Z 01015G21KT M07/M14 A3004 RMK A01 T10691142  RH  057%=      5-min Rain = 0
KBWS 111005Z 01014KT M07/M14 A3004 RMK A01 T10701141  RH  058%=      5-min Rain = 0
KBWS 111010Z 01015G21KT M07/M14 A3005 RMK A01 T10711142  RH  058%=      5-min Rain = 0
KBWS 111015Z 01015G21KT M07/M14 A3005 RMK A01 T10711142  RH  058%=      5-min Rain = 0
KBWS 111020Z 02015G20KT M07/M14 A3005 RMK A01 T10721141  RH  058%=      5-min Rain = 0
KBWS 111025Z 01016G21KT M07/M14 A3005 RMK A01 T10721141  RH  059%=      5-min Rain = 0
KBWS 111030Z 02014KT M07/M14 A3006 RMK A01 T10711140  RH  059%=      5-min Rain = 0
KBWS 111035Z 02014G21KT M07/M14 A3006 RMK A01 T10721141  RH  059%=      5-min Rain = 0
KBWS 111040Z 01013G18KT M07/M14 A3006 RMK A01 T10721142  RH  058%=      5-min Rain = 0
KBWS 111045Z 01013G19KT M07/M14 A3006 RMK A01 T10731142  RH  059%=      5-min Rain = 0
KBWS 111050Z 01014G19KT M07/M14 A3007 RMK A01 T10741142  RH  059%=      5-min Rain = 0
KBWS 111055Z 00014KT M07/M14 A3007 RMK A01 T10741142  RH  059%=      5-min Rain = 0
KBWS 111100Z 01014KT M08/M14 A3007 RMK A01 T10751142  RH  059%=      5-min Rain = 0
KBWS 111105Z 01015G20KT M08/M14 A3007 RMK A01 T10761143  RH  060%=      5-min Rain = 0
KBWS 111110Z 01013KT M08/M14 A3008 RMK A01 T10761143  RH  060%=      5-min Rain = 0
KBWS 111115Z 01013KT M08/M14 A3008 RMK A01 T10771143  RH  060%=      5-min Rain = 0
KBWS 111120Z 01013KT M08/M14 A3008 RMK A01 T10781143  RH  060%=      5-min Rain = 0
KBWS 111125Z 00013KT M08/M14 A3009 RMK A01 T10781143  RH  061%=      5-min Rain = 0
KBWS 111130Z 01013KT M08/M14 A3009 RMK A01 T10791143  RH  061%=      5-min Rain = 0
KBWS 111135Z 36011KT M08/M14 A3009 RMK A01 T10791143  RH  061%=      5-min Rain = 0
KBWS 111140Z 36014KT M08/M14 A3009 RMK A01 T10801144  RH  061%=      5-min Rain = 0
KBWS 111145Z 36012KT M08/M14 A3009 RMK A01 T10801143  RH  061%=      5-min Rain = 0
KBWS 111150Z 36013G18KT M08/M14 A3009 RMK A01 T10791143  RH  061%=      5-min Rain = 0
KBWS 111155Z 36012G17KT M08/M14 A3009 RMK A01 T10791143  RH  061%=      5-min Rain = 0
KBWS 111200Z 00011KT M08/M14 A301 RMK A01 T10791144  RH  061%=      5-min Rain = 0
KBWS 111205Z 00010KT M08/M14 A301 RMK A01 T10791144  RH  061%=      5-min Rain = 0
KBWS 111210Z 36009KT M08/M14 A3011 RMK A01 T10801144  RH  061%=      5-min Rain = 0
KBWS 111215Z 00009KT M08/M14 A3011 RMK A01 T10801144  RH  061%=      5-min Rain = 0
KBWS 111220Z 00008KT M08/M14 A3012 RMK A01 T10801144  RH  061%=      5-min Rain = 0
KBWS 111225Z 36008KT M08/M14 A3012 RMK A01 T10801144  RH  061%=      5-min Rain = 0
KBWS 111230Z 00009KT M08/M14 A3013 RMK A01 T10791144  RH  061%=      5-min Rain = 0
KBWS 111235Z 00008KT M08/M14 A3013 RMK A01 T10791144  RH  061%=      5-min Rain = 0
KBWS 111240Z 36008KT M08/M14 A3014 RMK A01 T10791144  RH  060%=      5-min Rain = 0
KBWS 111245Z 00010KT M08/M14 A3014 RMK A01 T10781144  RH  060%=      5-min Rain = 0
KBWS 111250Z 01009KT M08/M14 A3014 RMK A01 T10781144  RH  060%=      5-min Rain = 0
KBWS 111255Z 36007KT M08/M14 A3014 RMK A01 T10781144  RH  060%=      5-min Rain = 0
KBWS 111300Z 00009KT M08/M14 A3014 RMK A01 T10771144  RH  060%=      5-min Rain = 0
KBWS 111305Z 00008KT M08/M14 A3015 RMK A01 T10771144  RH  059%=      5-min Rain = 0
KBWS 111310Z 36007KT M08/M14 A3015 RMK A01 T10761144  RH  059%=      5-min Rain = 0
KBWS 111315Z 00008KT M08/M14 A3015 RMK A01 T10761144  RH  059%=      5-min Rain = 0
KBWS 111320Z 00008KT M08/M14 A3015 RMK A01 T10761144  RH  059%=      5-min Rain = 0
KBWS 111325Z 36008KT M08/M14 A3016 RMK A01 T10751143  RH  059%=      5-min Rain = 0
KBWS 111330Z 35007KT M08/M14 A3016 RMK A01 T10751143  RH  059%=      5-min Rain = 0
KBWS 111335Z 36007KT M07/M14 A3016 RMK A01 T10741143  RH  059%=      5-min Rain = 0
KBWS 111340Z 35009KT M07/M14 A3016 RMK A01 T10741143  RH  058%=      5-min Rain = 0
KBWS 111345Z 35010KT M07/M14 A3017 RMK A01 T10731144  RH  058%=      5-min Rain = 0
KBWS 111350Z 34010KT M07/M14 A3017 RMK A01 T10741144  RH  058%=      5-min Rain = 0
KBWS 111355Z 34011KT M07/M14 A3017 RMK A01 T10731143  RH  058%=      5-min Rain = 0
KBWS 111400Z 34010KT M07/M14 A3017 RMK A01 T10721143  RH  058%=      5-min Rain = 0
KBWS 111405Z 35009KT M07/M14 A3017 RMK A01 T10711143  RH  058%=      5-min Rain = 0
KBWS 111410Z 34009G14KT M07/M14 A3018 RMK A01 T10691142  RH  057%=      5-min Rain = 0
KBWS 111415Z 34011KT M07/M14 A3018 RMK A01 T10671142  RH  056%=      5-min Rain = 0
KBWS 111420Z 35010KT M07/M14 A3018 RMK A01 T10651141  RH  055%=      5-min Rain = 0
KBWS 111425Z 35009KT M06/M14 A3019 RMK A01 T10631140  RH  055%=      5-min Rain = 0
KBWS 111430Z 34009KT M06/M14 A3019 RMK A01 T10611141  RH  054%=      5-min Rain = 0
KBWS 111435Z 34009KT M06/M14 A3019 RMK A01 T10621141  RH  055%=      5-min Rain = 0
KBWS 111440Z 33009KT M06/M14 A302 RMK A01 T10581139  RH  054%=      5-min Rain = 0
KBWS 111445Z 34009KT M06/M14 A3019 RMK A01 T10581140  RH  053%=      5-min Rain = 0
KBWS 111450Z 34008KT M06/M14 A3019 RMK A01 T10571139  RH  053%=      5-min Rain = 0
KBWS 111455Z 34008KT M06/M14 A3019 RMK A01 T10571139  RH  053%=      5-min Rain = 0
KBWS 111500Z 34009KT M06/M14 A3019 RMK A01 T10571138  RH  053%=      5-min Rain = 0
KBWS 111505Z 33008KT M06/M14 A3021 RMK A01 T10551137  RH  053%=      5-min Rain = 0
KBWS 111510Z 34009KT M05/M14 A302 RMK A01 T10521135  RH  053%=      5-min Rain = 0
KBWS 111515Z 34011KT M05/M14 A302 RMK A01 T10511135  RH  053%=      5-min Rain = 0
KBWS 111520Z 36011KT M05/M13 A302 RMK A01 T10491132  RH  053%=      5-min Rain = 0
KBWS 111525Z 35011KT M05/M13 A3021 RMK A01 T10471131  RH  053%=      5-min Rain = 0
KBWS 111530Z 35012G17KT M05/M13 A3021 RMK A01 T10451129  RH  053%=      5-min Rain = 0
KBWS 111535Z 00013G18KT M04/M13 A3021 RMK A01 T10441128  RH  053%=      5-min Rain = 0
KBWS 111540Z 36013KT M04/M13 A3022 RMK A01 T10431127  RH  053%=      5-min Rain = 0
KBWS 111545Z 36015KT M04/M13 A3022 RMK A01 T10421126  RH  053%=      5-min Rain = 0
KBWS 111550Z 00013G18KT M04/M13 A3021 RMK A01 T10411126  RH  052%=      5-min Rain = 0
KBWS 111555Z 36011G17KT M04/M13 A3021 RMK A01 T10391125  RH  052%=      5-min Rain = 0
KBWS 111600Z 00012KT M04/M13 A3021 RMK A01 T10391126  RH  051%=      5-min Rain = 0
KBWS 111605Z 00012KT M04/M13 A3022 RMK A01 T10391126  RH  052%=      5-min Rain = 0
KBWS 111610Z 35012G17KT M04/M13 A3022 RMK A01 T10371125  RH  051%=      5-min Rain = 0
KBWS 111615Z 36012KT M04/M12 A3022 RMK A01 T10361124  RH  051%=      5-min Rain = 0
KBWS 111620Z 36013G18KT M04/M12 A3022 RMK A01 T10351124  RH  051%=      5-min Rain = 0
KBWS 111625Z 00011KT M03/M12 A3022 RMK A01 T10311123  RH  050%=      5-min Rain = 0
KBWS 111630Z 36010G15KT M03/M12 A3022 RMK A01 T10291122  RH  049%=      5-min Rain = 0
KBWS 111635Z 00014KT M03/M12 A3022 RMK A01 T10311123  RH  050%=      5-min Rain = 0
KBWS 111640Z 00013G18KT M03/M12 A3022 RMK A01 T10301122  RH  049%=      5-min Rain = 0
KBWS 111645Z 00013KT M03/M12 A3023 RMK A01 T10291122  RH  049%=      5-min Rain = 0
KBWS 111650Z 00011KT M03/M12 A3023 RMK A01 T10261121  RH  049%=      5-min Rain = 0
KBWS 111655Z 01011KT M02/M12 A3023 RMK A01 T10241121  RH  048%=      5-min Rain = 0
KBWS 111700Z 00011G16KT M02/M12 A3023 RMK A01 T10201120  RH  047%=      5-min Rain = 0
KBWS 111705Z 35012KT M02/M12 A3023 RMK A01 T10191120  RH  047%=      5-min Rain = 0
KBWS 111710Z 36012G17KT M02/M12 A3022 RMK A01 T10171120  RH  046%=      5-min Rain = 0
KBWS 111715Z 00014G19KT M02/M12 A3022 RMK A01 T10161119  RH  046%=      5-min Rain = 0
KBWS 111720Z 00013KT M01/M12 A3022 RMK A01 T10141119  RH  045%=      5-min Rain = 0
KBWS 111725Z 00011KT M01/M12 A3023 RMK A01 T10131119  RH  045%=      5-min Rain = 0
KBWS 111730Z 36011G16KT M01/M12 A3022 RMK A01 T10121119  RH  045%=      5-min Rain = 0
KBWS 111735Z 00011KT M01/M12 A3022 RMK A01 T10111118  RH  045%=      5-min Rain = 0
KBWS 111740Z 35012G17KT M01/M12 A3022 RMK A01 T10101118  RH  044%=      5-min Rain = 0
KBWS 111745Z 35012G17KT M01/M12 A3022 RMK A01 T10071118  RH  043%=      5-min Rain = 0
KBWS 111750Z 36009KT M01/M12 A3022 RMK A01 T10051117  RH  043%=      5-min Rain = 0
KBWS 111755Z 36010KT M00/M12 A3022 RMK A01 T10031117  RH  043%=      5-min Rain = 0
KBWS 111800Z 01012G17KT 00/12 A3022 RMK A01 T00-00-117  RH  042%=      5-min Rain = 0
KBWS 111805Z 01012G17KT 00/M12 A3022 RMK A01 T00011117  RH  041%=      5-min Rain = 0
KBWS 111810Z 01011G16KT M00/M12 A3021 RMK A01 T10021119  RH  041%=      5-min Rain = 0
KBWS 111815Z 35010KT M00/M12 A3021 RMK A01 T10031118  RH  042%=      5-min Rain = 0
KBWS 111820Z 36010G16KT M00/M12 A3021 RMK A01 T10021118  RH  042%=      5-min Rain = 0
KBWS 111825Z 36010G15KT 00/M12 A302 RMK A01 T00031115  RH  041%=      5-min Rain = 0
KBWS 111830Z 36012KT 01/M12 A302 RMK A01 T00091115  RH  039%=      5-min Rain = 0
KBWS 111835Z 00011KT 01/M12 A302 RMK A01 T00071117  RH  040%=      5-min Rain = 0
KBWS 111840Z 01011KT 01/M12 A302 RMK A01 T00071116  RH  040%=      5-min Rain = 0
KBWS 111845Z 36010KT 01/M12 A302 RMK A01 T00101116  RH  039%=      5-min Rain = 0
KBWS 111850Z 36009KT 01/M12 A302 RMK A01 T00091116  RH  039%=      5-min Rain = 0
KBWS 111855Z 01010G15KT 01/M12 A3019 RMK A01 T00111117  RH  038%=      5-min Rain = 0
KBWS 111900Z 01010KT 01/M12 A3019 RMK A01 T00131116  RH  038%=      5-min Rain = 0
KBWS 111905Z 03010KT 02/M11 A3019 RMK A01 T00161114  RH  038%=      5-min Rain = 0
KBWS 111910Z 02010KT 02/M11 A3018 RMK A01 T00231112  RH  037%=      5-min Rain = 0
KBWS 111915Z 35008G14KT 02/M11 A3018 RMK A01 T00231112  RH  037%=      5-min Rain = 0
KBWS 111920Z 03009KT 02/M11 A3018 RMK A01 T00231112  RH  037%=      5-min Rain = 0
KBWS 111925Z 02009KT 03/M11 A3018 RMK A01 T00251111  RH  036%=      5-min Rain = 0
KBWS 111930Z 00007G12KT 03/M11 A3017 RMK A01 T00281110  RH  036%=      5-min Rain = 0
KBWS 111935Z 03008G13KT 03/M11 A3017 RMK A01 T00321109  RH  035%=      5-min Rain = 0
KBWS 111940Z 04008KT 03/M11 A3017 RMK A01 T00321109  RH  035%=      5-min Rain = 0
KBWS 111945Z 03006KT 03/M11 A3016 RMK A01 T00301111  RH  035%=      5-min Rain = 0
KBWS 111950Z 03007G12KT 04/M11 A3016 RMK A01 T00371108  RH  034%=      5-min Rain = 0
KBWS 111955Z 01006G11KT 04/M11 A3016 RMK A01 T00351110  RH  034%=      5-min Rain = 0
KBWS 112000Z 02006KT 04/M11 A3015 RMK A01 T00391108  RH  034%=      5-min Rain = 0
KBWS 112005Z 01008KT 04/M11 A3015 RMK A01 T00441109  RH  032%=      5-min Rain = 0
KBWS 112010Z 01004KT 04/M11 A3015 RMK A01 T00361112  RH  033%=      5-min Rain = 0
KBWS 112015Z 03004G10KT 04/M11 A3015 RMK A01 T00391109  RH  033%=      5-min Rain = 0
KBWS 112020Z 36007KT 04/M11 A3015 RMK A01 T00421111  RH  032%=      5-min Rain = 0
KBWS 112025Z 01006KT 04/M11 A3015 RMK A01 T00401111  RH  032%=      5-min Rain = 0
KBWS 112030Z 01008KT 04/M11 A3014 RMK A01 T00441111  RH  032%=      5-min Rain = 0
KBWS 112035Z 01006KT 04/M11 A3014 RMK A01 T00431111  RH  032%=      5-min Rain = 0
KBWS 112040Z 02005KT 05/M11 A3014 RMK A01 T00451112  RH  032%=      5-min Rain = 0
KBWS 112045Z 04007KT 04/M11 A3014 RMK A01 T00441111  RH  032%=      5-min Rain = 0
KBWS 112050Z 04005KT 05/M11 A3014 RMK A01 T00461112  RH  031%=      5-min Rain = 0
KBWS 112055Z 06003KT 04/M11 A3014 RMK A01 T00441111  RH  032%=      5-min Rain = 0
KBWS 112100Z 02003KT 05/M11 A3014 RMK A01 T00471112  RH  031%=      5-min Rain = 0
KBWS 112105Z 34005KT 05/M11 A3014 RMK A01 T00481113  RH  030%=      5-min Rain = 0
KBWS 112110Z 35004KT 05/M11 A3014 RMK A01 T00491113  RH  030%=      5-min Rain = 0
KBWS 112115Z 34002KT 05/M11 A3014 RMK A01 T00511112  RH  030%=      5-min Rain = 0
KBWS 112120Z 35004KT 05/M11 A3013 RMK A01 T00541112  RH  030%=      5-min Rain = 0
KBWS 112125Z 01002KT 05/M11 A3014 RMK A01 T00541113  RH  029%=      5-min Rain = 0
KBWS 112130Z 04003G9KT 06/M11 A3014 RMK A01 T00551113  RH  029%=      5-min Rain = 0
KBWS 112135Z 08005KT 05/M11 A3013 RMK A01 T00541113  RH  029%=      5-min Rain = 0
KBWS 112140Z 05004KT 06/M11 A3014 RMK A01 T00561114  RH  029%=      5-min Rain = 0
KBWS 112145Z 01005KT 06/M11 A3013 RMK A01 T00591112  RH  028%=      5-min Rain = 0
KBWS 112150Z 06003KT 06/M12 A3013 RMK A01 T00581115  RH  028%=      5-min Rain = 0
KBWS 112155Z 10002KT 06/M11 A3013 RMK A01 T00561114  RH  028%=      5-min Rain = 0
KBWS 112200Z 12002KT 06/M11 A3013 RMK A01 T00601113  RH  028%=      5-min Rain = 0
KBWS 112205Z 03003KT 06/M11 A3013 RMK A01 T00641114  RH  027%=      5-min Rain = 0
KBWS 112210Z 01004KT 06/M12 A3014 RMK A01 T00621115  RH  027%=      5-min Rain = 0
KBWS 112215Z 00003KT 06/M12 A3014 RMK A01 T00611117  RH  027%=      5-min Rain = 0
KBWS 112220Z 35003KT 06/M12 A3014 RMK A01 T00611117  RH  027%=      5-min Rain = 0
KBWS 112225Z 07001KT 06/M12 A3014 RMK A01 T00631116  RH  027%=      5-min Rain = 0
KBWS 112230Z 10001KT 06/M12 A3014 RMK A01 T00621117  RH  027%=      5-min Rain = 0
KBWS 112235Z 10002KT 06/M12 A3014 RMK A01 T00641116  RH  027%=      5-min Rain = 0
KBWS 112240Z 13002KT 07/M11 A3014 RMK A01 T00661114  RH  027%=      5-min Rain = 0
KBWS 112245Z 07001KT 07/M12 A3014 RMK A01 T00701115  RH  026%=      5-min Rain = 0
KBWS 112250Z 08003KT 07/M12 A3014 RMK A01 T00651116  RH  027%=      5-min Rain = 0
KBWS 112255Z 05002KT 06/M12 A3014 RMK A01 T00611117  RH  027%=      5-min Rain = 0
KBWS 112300Z 05005KT 06/M12 A3014 RMK A01 T00591117  RH  027%=      5-min Rain = 0
KBWS 112305Z 03002KT 06/M12 A3014 RMK A01 T00611118  RH  027%=      5-min Rain = 0
KBWS 112310Z 10000KT 07/M12 A3014 RMK A01 T00651117  RH  026%=      5-min Rain = 0
KBWS 112315Z 02004KT 06/M12 A3014 RMK A01 T00641119  RH  026%=      5-min Rain = 0
KBWS 112320Z 04004KT 06/M12 A3014 RMK A01 T00601120  RH  026%=      5-min Rain = 0
KBWS 112325Z 03003KT 06/M12 A3014 RMK A01 T00571122  RH  027%=      5-min Rain = 0
KBWS 112330Z 06003KT 06/M12 A3014 RMK A01 T00571121  RH  027%=      5-min Rain = 0
KBWS 112335Z 04004KT 06/M12 A3014 RMK A01 T00601120  RH  027%=      5-min Rain = 0
KBWS 112340Z 05003KT 06/M12 A3014 RMK A01 T00601122  RH  026%=      5-min Rain = 0
KBWS 112345Z 06002KT 06/M12 A3014 RMK A01 T00591122  RH  026%=      5-min Rain = 0
KBWS 112350Z 05000KT 06/M12 A3015 RMK A01 T00601121  RH  026%=      5-min Rain = 0
KBWS 112355Z 03003KT 06/M12 A3015 RMK A01 T00611121  RH  026%=      5-min Rain = 0
KBWS 120000Z 05002KT 06/M12 A3015 RMK A01 T00591121  RH  026%=      5-min Rain = 0
KBWS 120005Z 03002KT 06/M12 A3015 RMK A01 T00571121  RH  027%=      5-min Rain = 0
KBWS 120010Z 01002KT 06/M12 A3015 RMK A01 T00551121  RH  027%=      5-min Rain = 0
KBWS 120015Z 03002KT 05/M12 A3015 RMK A01 T00531121  RH  028%=      5-min Rain = 0
KBWS 120020Z 06002KT 05/M12 A3015 RMK A01 T00511118  RH  029%=      5-min Rain = 0
KBWS 120025Z 06002KT 05/M11 A3015 RMK A01 T00481114  RH  030%=      5-min Rain = 0
KBWS 120030Z 04003KT 05/M11 A3015 RMK A01 T00451109  RH  032%=      5-min Rain = 0
KBWS 120035Z 05003KT 04/M12 A3015 RMK A01 T00421115  RH  031%=      5-min Rain = 0
KBWS 120040Z 07004KT 04/M12 A3015 RMK A01 T00381115  RH  032%=      5-min Rain = 0
KBWS 120045Z 07005KT 04/M12 A3016 RMK A01 T00371118  RH  032%=      5-min Rain = 0
KBWS 120050Z 07005KT 04/M12 A3016 RMK A01 T00351122  RH  031%=      5-min Rain = 0
KBWS 120055Z 08005KT 03/M13 A3016 RMK A01 T00331128  RH  030%=      5-min Rain = 0
KBWS 120100Z 08005KT 04/M13 A3016 RMK A01 T00351125  RH  030%=      5-min Rain = 0
KBWS 120105Z 08005KT 03/M13 A3016 RMK A01 T00311127  RH  031%=      5-min Rain = 0
KBWS 120110Z 08005KT 03/M13 A3016 RMK A01 T00281127  RH  031%=      5-min Rain = 0
KBWS 120115Z 09005KT 03/M13 A3017 RMK A01 T00251127  RH  032%=      5-min Rain = 0
KBWS 120120Z 09005KT 02/M13 A3017 RMK A01 T00231128  RH  032%=      5-min Rain = 0
KBWS 120125Z 10004KT 02/M13 A3017 RMK A01 T00201125  RH  034%=      5-min Rain = 0
KBWS 120130Z 11005KT 01/M13 A3017 RMK A01 T00141126  RH  035%=      5-min Rain = 0
KBWS 120135Z 11005KT 01/M13 A3017 RMK A01 T00081128  RH  036%=      5-min Rain = 0
KBWS 120140Z 11005KT 00/M13 A3017 RMK A01 T00041128  RH  037%=      5-min Rain = 0
KBWS 120145Z 14006KT M00/M13 A3018 RMK A01 T10031134  RH  037%=      5-min Rain = 0
KBWS 120150Z 13006KT M01/M13 A3018 RMK A01 T10051134  RH  038%=      5-min Rain = 0
KBWS 120155Z 13006KT M00/M13 A3018 RMK A01 T10041129  RH  039%=      5-min Rain = 0
KBWS 120200Z 12006KT 00/M13 A3018 RMK A01 T00011127  RH  038%=      5-min Rain = 0
KBWS 120205Z 12005KT 00/13 A3018 RMK A01 T00-00-129  RH  038%=      5-min Rain = 0
KBWS 120210Z 12005KT 00/M13 A3018 RMK A01 T00021132  RH  037%=      5-min Rain = 0
KBWS 120215Z 12005KT 00/M14 A3018 RMK A01 T00011135  RH  036%=      5-min Rain = 0
KBWS 120220Z 12005KT M00/M13 A3018 RMK A01 T10011134  RH  037%=      5-min Rain = 0
KBWS 120225Z 13005KT M00/M14 A3018 RMK A01 T10041135  RH  037%=      5-min Rain = 0
KBWS 120230Z 13006KT M00/M14 A3019 RMK A01 T10031136  RH  037%=      5-min Rain = 0
KBWS 120235Z 13006KT M01/M13 A3019 RMK A01 T10071134  RH  038%=      5-min Rain = 0
KBWS 120240Z 13007KT M01/M13 A3019 RMK A01 T10101131  RH  040%=      5-min Rain = 0
KBWS 120245Z 14007KT M01/M13 A3019 RMK A01 T10091131  RH  040%=      5-min Rain = 0
KBWS 120250Z 15008KT M01/M14 A3019 RMK A01 T10081138  RH  037%=      5-min Rain = 0
KBWS 120255Z 15007KT M01/M14 A3019 RMK A01 T10051137  RH  037%=      5-min Rain = 0
KBWS 120300Z 15006KT M01/M14 A3019 RMK A01 T10071138  RH  037%=      5-min Rain = 0
KBWS 120305Z 16007KT M01/M14 A3019 RMK A01 T10111143  RH  037%=      5-min Rain = 0
KBWS 120310Z 17008KT M01/M14 A302 RMK A01 T10121142  RH  037%=      5-min Rain = 0
KBWS 120315Z 17007KT M01/M14 A302 RMK A01 T10131142  RH  037%=      5-min Rain = 0
KBWS 120320Z 17006KT M02/M14 A302 RMK A01 T10151142  RH  038%=      5-min Rain = 0
KBWS 120325Z 17006KT M02/M14 A302 RMK A01 T10171139  RH  040%=      5-min Rain = 0
KBWS 120330Z 17006KT M02/M14 A302 RMK A01 T10181138  RH  040%=      5-min Rain = 0
KBWS 120335Z 17005KT M02/M14 A302 RMK A01 T10211140  RH  040%=      5-min Rain = 0
KBWS 120340Z 14004KT M03/M14 A3021 RMK A01 T10261141  RH  042%=      5-min Rain = 0
KBWS 120345Z 15004KT M03/M14 A3021 RMK A01 T10251141  RH  041%=      5-min Rain = 0
KBWS 120350Z 16004KT M03/M14 A302 RMK A01 T10261141  RH  041%=      5-min Rain = 0
KBWS 120355Z 16005KT M03/M14 A302 RMK A01 T10251141  RH  041%=      5-min Rain = 0
KBWS 120400Z 15005KT M03/M15 A3021 RMK A01 T10261145  RH  040%=      5-min Rain = 0
KBWS 120405Z 15006KT M03/M15 A3021 RMK A01 T10311147  RH  041%=      5-min Rain = 0
KBWS 120410Z 15005KT M03/M14 A3021 RMK A01 T10331141  RH  044%=      5-min Rain = 0
KBWS 120415Z 15005KT M03/M13 A3021 RMK A01 T10341130  RH  048%=      5-min Rain = 0
KBWS 120420Z 15005KT M03/M13 A3021 RMK A01 T10321129  RH  048%=      5-min Rain = 0
KBWS 120425Z 16005KT M03/M13 A3021 RMK A01 T10281131  RH  046%=      5-min Rain = 0
KBWS 120430Z 16005KT M03/M14 A302 RMK A01 T10281135  RH  044%=      5-min Rain = 0
KBWS 120435Z 16004KT M03/M14 A302 RMK A01 T10271139  RH  043%=      5-min Rain = 0
KBWS 120440Z 15004KT M03/M14 A302 RMK A01 T10271136  RH  043%=      5-min Rain = 0
KBWS 120445Z 15003KT M02/M13 A3021 RMK A01 T10231132  RH  044%=      5-min Rain = 0
KBWS 120450Z 16003KT M02/M13 A3021 RMK A01 T10211129  RH  044%=      5-min Rain = 0
KBWS 120455Z 16003KT M02/M13 A3021 RMK A01 T10221131  RH  044%=      5-min Rain = 0
KBWS 120500Z 16003KT M02/M13 A3021 RMK A01 T10221129  RH  044%=      5-min Rain = 0
KBWS 120505Z 16003KT M02/M13 A3021 RMK A01 T10231130  RH  045%=      5-min Rain = 0
KBWS 120510Z 16002KT M02/M13 A3021 RMK A01 T10241129  RH  045%=      5-min Rain = 0
KBWS 120515Z 16002KT M02/M13 A3021 RMK A01 T10201127  RH  044%=      5-min Rain = 0
KBWS 120520Z 15003KT M02/M13 A3021 RMK A01 T10201129  RH  044%=      5-min Rain = 0
KBWS 120525Z 15004KT M02/M13 A3022 RMK A01 T10191129  RH  043%=      5-min Rain = 0
KBWS 120530Z 15004KT M02/M13 A3022 RMK A01 T10181129  RH  043%=      5-min Rain = 0
KBWS 120535Z 15004KT M02/M13 A3022 RMK A01 T10181131  RH  042%=      5-min Rain = 0
KBWS 120540Z 16004KT M02/M13 A3022 RMK A01 T10191132  RH  043%=      5-min Rain = 0
KBWS 120545Z 16004KT M02/M13 A3022 RMK A01 T10181128  RH  043%=      5-min Rain = 0
KBWS 120550Z 16004KT M02/M13 A3022 RMK A01 T10181129  RH  043%=      5-min Rain = 0
KBWS 120555Z 16004KT M02/M13 A3022 RMK A01 T10201128  RH  044%=      5-min Rain = 0

Page generated in 0.0153 seconds.